Time;durP1;ratioP1;P1;durP2;ratioP2;P2;SDS_P1;SDS_P2;PMS_P1;PMS_P2;Temp;Humidity;BMP_temperature;BMP_pressure;BME280_temperature;BME280_humidity;BME280_pressure;Samples;Min_cycle;Max_cycle;Signal;HPM_P1;HPM_P2
2022/04/01 00:00:10;;;;;;;0.52;0.10;;;0.90;99.90;;;;;;5081636;28;20500;-73
2022/04/01 00:02:36;;;;;;;0.73;0.30;;;0.90;99.90;;;;;;5076493;28;20502;-73
2022/04/01 00:05:03;;;;;;;1.17;0.28;;;0.90;99.90;;;;;;5091652;28;20024;-73
2022/04/01 00:07:28;;;;;;;1.15;0.47;;;0.90;99.90;;;;;;5096641;28;20036;-73
2022/04/01 00:09:54;;;;;;;0.85;0.25;;;0.90;99.90;;;;;;5096484;28;20481;-73
2022/04/01 00:12:19;;;;;;;0.93;0.30;;;0.90;99.90;;;;;;5096703;28;20027;-73
2022/04/01 00:14:45;;;;;;;0.70;0.30;;;0.90;99.90;;;;;;5082219;28;20036;-73
2022/04/01 00:17:10;;;;;;;0.90;0.40;;;0.80;99.90;;;;;;5077326;28;20103;-73
2022/04/01 00:19:36;;;;;;;0.73;0.13;;;0.90;99.90;;;;;;5075928;28;20024;-73
2022/04/01 00:22:02;;;;;;;1.13;0.30;;;0.80;99.90;;;;;;5074760;28;20032;-72
2022/04/01 00:24:28;;;;;;;0.50;0.15;;;0.80;99.90;;;;;;5085920;28;20030;-73
2022/04/01 00:26:53;;;;;;;1.42;0.00;;;0.80;99.90;;;;;;5094888;28;20024;-73
2022/04/01 00:29:20;;;;;;;0.65;0.20;;;0.80;99.90;;;;;;5094827;28;20031;-73
2022/04/01 00:31:46;;;;;;;1.00;0.43;;;0.80;99.90;;;;;;5096790;28;20026;-73
2022/04/01 00:34:15;;;;;;;3.13;0.50;;;0.80;99.90;;;;;;5088397;28;20027;-73
2022/04/01 00:36:45;;;;;;;0.63;0.20;;;0.80;99.90;;;;;;5076226;28;20040;-74
2022/04/01 00:39:12;;;;;;;1.08;0.30;;;0.80;99.90;;;;;;5074526;28;20057;-74
2022/04/01 00:41:38;;;;;;;1.20;0.38;;;0.70;99.90;;;;;;5075852;28;20025;-71
2022/04/01 00:44:15;;;;;;;0.93;0.28;;;0.70;99.90;;;;;;5076398;28;20103;-72
2022/04/01 00:46:42;;;;;;;2.05;0.50;;;0.70;99.90;;;;;;5074300;28;20029;-72
2022/04/01 00:49:08;;;;;;;1.63;0.20;;;0.70;99.90;;;;;;5075643;28;20474;-72
2022/04/01 00:51:34;;;;;;;0.63;0.38;;;0.70;99.90;;;;;;5075749;28;20028;-72
2022/04/01 00:54:00;;;;;;;1.00;0.15;;;0.60;99.90;;;;;;5074912;28;20017;-74
2022/04/01 00:56:30;;;;;;;3.08;0.40;;;0.60;99.90;;;;;;5075790;28;20028;-73
2022/04/01 00:58:56;;;;;;;1.88;0.77;;;0.60;99.90;;;;;;5074296;28;20039;-73
2022/04/01 01:01:22;;;;;;;1.20;0.35;;;0.60;99.90;;;;;;5075665;28;20029;-73
2022/04/01 01:03:49;;;;;;;0.80;0.20;;;0.60;99.90;;;;;;5077331;28;20401;-73
2022/04/01 01:06:16;;;;;;;1.38;0.30;;;0.60;99.90;;;;;;5094326;28;20477;-73
2022/04/01 01:08:42;;;;;;;1.10;0.28;;;0.60;99.90;;;;;;5096235;28;20016;-73
2022/04/01 01:11:08;;;;;;;2.00;0.52;;;0.60;99.90;;;;;;5094235;28;20024;-75
2022/04/01 01:13:34;;;;;;;1.10;0.20;;;0.60;99.90;;;;;;5094059;28;20024;-75
2022/04/01 01:16:00;;;;;;;0.95;0.50;;;0.60;99.90;;;;;;5073969;28;20055;-75
2022/04/01 01:18:25;;;;;;;0.60;0.30;;;0.60;99.90;;;;;;5075621;28;20103;-74
2022/04/01 01:20:51;;;;;;;1.67;0.40;;;0.60;99.90;;;;;;5074966;28;20017;-73
2022/04/01 01:23:17;;;;;;;1.52;0.40;;;0.60;99.90;;;;;;5073681;28;20098;-73
2022/04/01 01:25:43;;;;;;;1.80;0.35;;;0.60;99.90;;;;;;5093492;28;20532;-73
2022/04/01 01:28:09;;;;;;;0.75;0.30;;;0.60;99.90;;;;;;5095156;28;20473;-75
2022/04/01 01:30:34;;;;;;;0.77;0.30;;;0.60;99.90;;;;;;5095323;28;20020;-73
2022/04/01 01:33:01;;;;;;;2.40;0.80;;;0.60;99.90;;;;;;5095190;28;20016;-73
2022/04/01 01:35:28;;;;;;;3.40;0.52;;;0.60;99.90;;;;;;5077204;28;20017;-73
2022/04/01 01:37:54;;;;;;;1.35;0.82;;;0.60;99.90;;;;;;5075308;28;20119;-73
2022/04/01 01:40:20;;;;;;;3.92;1.77;;;0.60;99.90;;;;;;5073347;28;20499;-73
2022/04/01 01:42:46;;;;;;;1.55;0.73;;;0.60;99.90;;;;;;5075159;28;20017;-73
2022/04/01 01:45:11;;;;;;;3.17;0.55;;;0.60;99.90;;;;;;5087840;28;20027;-73
2022/04/01 01:47:37;;;;;;;1.50;0.60;;;0.60;99.90;;;;;;5094811;28;20027;-73
2022/04/01 01:55:32;;;;;;;1.27;0.30;;;0.60;99.90;;;;;;5078107;28;20039;-74
2022/04/01 01:57:58;;;;;;;4.10;0.95;;;0.60;99.90;;;;;;5074430;28;20028;-73
2022/04/01 02:00:24;;;;;;;1.33;0.55;;;0.60;99.90;;;;;;5073011;28;20046;-74
2022/04/01 02:02:49;;;;;;;5.13;0.45;;;0.60;99.90;;;;;;5074333;28;20085;-74
2022/04/01 02:05:16;;;;;;;1.60;0.60;;;0.60;99.90;;;;;;5074117;28;20039;-74
2022/04/01 02:07:47;;;;;;;3.95;0.52;;;0.60;99.90;;;;;;5073980;28;20016;-74
2022/04/01 02:10:16;;;;;;;1.27;0.50;;;0.60;99.90;;;;;;5073736;28;20024;-74
2022/04/01 02:12:43;;;;;;;1.60;0.20;;;0.60;99.90;;;;;;5073967;28;20016;-74
2022/04/01 02:15:10;;;;;;;1.13;0.40;;;0.60;99.90;;;;;;5073830;28;20071;-75
2022/04/01 02:17:37;;;;;;;1.70;0.50;;;0.60;99.90;;;;;;5072539;28;20025;-74
2022/04/01 02:20:05;;;;;;;2.70;0.50;;;0.60;99.90;;;;;;5073745;28;20367;-74
2022/04/01 02:22:31;;;;;;;1.67;0.80;;;0.60;99.90;;;;;;5073717;28;20029;-74
2022/04/01 02:24:57;;;;;;;1.35;0.50;;;0.60;99.90;;;;;;5078111;28;20021;-74
2022/04/01 02:27:24;;;;;;;1.35;0.38;;;0.60;99.90;;;;;;5087902;28;20072;-74
2022/04/01 02:29:50;;;;;;;1.95;0.45;;;0.60;99.90;;;;;;5094090;28;20330;-74
2022/04/01 02:32:16;;;;;;;3.38;0.65;;;0.60;99.90;;;;;;5092967;28;20385;-74
2022/04/01 02:34:42;;;;;;;2.10;0.40;;;0.60;99.90;;;;;;5092333;28;20024;-74
2022/04/01 02:37:08;;;;;;;1.00;0.50;;;0.60;99.90;;;;;;5092897;28;20031;-74
2022/04/01 02:39:33;;;;;;;1.13;0.35;;;0.60;99.90;;;;;;5093813;28;20031;-74
2022/04/01 02:41:59;;;;;;;1.85;0.30;;;0.60;99.90;;;;;;5094145;28;20043;-74
2022/04/01 02:44:24;;;;;;;0.98;0.20;;;0.60;99.90;;;;;;5093851;28;20059;-74
2022/04/01 02:46:50;;;;;;;0.80;0.22;;;0.50;99.90;;;;;;5093832;28;20422;-74
2022/04/01 02:49:17;;;;;;;6.07;0.30;;;0.60;99.90;;;;;;5092501;28;20020;-74
2022/04/01 02:51:45;;;;;;;2.20;0.40;;;0.60;99.90;;;;;;5093228;28;20370;-74
2022/04/01 02:54:12;;;;;;;1.85;0.73;;;0.60;99.90;;;;;;5094277;28;20017;-74
2022/04/01 02:56:39;;;;;;;2.80;0.73;;;0.60;99.90;;;;;;5093951;28;20024;-74
2022/04/01 02:59:07;;;;;;;1.85;0.22;;;0.60;99.90;;;;;;5092239;28;20084;-74
2022/04/01 03:01:35;;;;;;;2.35;0.57;;;0.60;99.90;;;;;;5093736;28;20428;-74
2022/04/01 03:04:01;;;;;;;1.75;0.60;;;0.60;99.90;;;;;;5093547;28;20020;-74
2022/04/01 03:06:27;;;;;;;0.93;0.38;;;0.60;99.90;;;;;;5093353;28;20032;-74
2022/04/01 03:08:53;;;;;;;1.15;0.30;;;0.60;99.90;;;;;;5093498;28;20387;-74
2022/04/01 03:11:19;;;;;;;0.70;0.20;;;0.50;99.90;;;;;;5092126;28;20016;-74
2022/04/01 03:13:45;;;;;;;3.50;0.45;;;0.60;99.90;;;;;;5090999;28;20017;-74
2022/04/01 03:16:12;;;;;;;2.67;0.47;;;0.60;99.90;;;;;;5073354;28;20025;-74
2022/04/01 03:18:40;;;;;;;2.67;0.40;;;0.60;99.90;;;;;;5071957;28;20017;-74
2022/04/01 03:21:08;;;;;;;1.48;0.43;;;0.60;99.90;;;;;;5072371;28;20111;-74
2022/04/01 03:23:35;;;;;;;3.38;0.45;;;0.60;99.90;;;;;;5077391;28;20032;-75
2022/04/01 03:26:02;;;;;;;3.47;0.50;;;0.70;99.90;;;;;;5077151;28;20099;-74
2022/04/01 03:28:27;;;;;;;4.88;0.20;;;0.70;99.90;;;;;;5076089;28;20039;-74
2022/04/01 03:30:53;;;;;;;3.92;0.63;;;0.60;99.90;;;;;;5077015;28;20482;-75
2022/04/01 03:33:18;;;;;;;0.85;0.32;;;0.60;99.90;;;;;;5077496;28;20016;-75
2022/04/01 03:35:46;;;;;;;0.85;0.40;;;0.60;99.90;;;;;;5077401;28;20028;-73
2022/04/01 03:38:11;;;;;;;1.00;0.20;;;0.60;99.90;;;;;;5077192;28;20078;-74
2022/04/01 03:40:40;;;;;;;1.73;0.50;;;0.60;99.90;;;;;;5077321;28;20032;-75
2022/04/01 03:43:06;;;;;;;3.05;0.43;;;0.60;99.90;;;;;;5077143;28;20025;-74
2022/04/01 03:45:33;;;;;;;1.63;0.35;;;0.60;99.90;;;;;;5077212;28;20031;-74
2022/04/01 03:48:04;;;;;;;0.88;0.40;;;0.60;99.90;;;;;;5076746;28;20017;-74
2022/04/01 03:50:32;;;;;;;2.88;0.52;;;0.60;99.90;;;;;;5075719;28;20024;-72
2022/04/01 03:53:08;;;;;;;1.83;0.47;;;0.60;99.90;;;;;;5075537;28;20023;-72
2022/04/01 03:55:38;;;;;;;3.03;0.70;;;0.60;99.90;;;;;;5090403;28;20058;-71
2022/04/01 03:58:14;;;;;;;1.15;0.43;;;0.60;99.90;;;;;;5095764;28;20117;-72
2022/04/01 04:00:41;;;;;;;0.45;0.30;;;0.60;99.90;;;;;;5097040;28;20393;-71
2022/04/01 04:03:09;;;;;;;1.85;0.45;;;0.60;99.90;;;;;;5096791;28;20031;-72
2022/04/01 04:05:38;;;;;;;0.77;0.22;;;0.60;99.90;;;;;;5075290;28;20042;-72
2022/04/01 04:08:05;;;;;;;5.50;0.57;;;0.60;99.90;;;;;;5075167;28;20013;-74
2022/04/01 04:10:34;;;;;;;1.20;0.20;;;0.60;99.90;;;;;;5076679;28;20021;-74
2022/04/01 04:13:06;;;;;;;1.48;0.30;;;0.60;99.90;;;;;;5075200;28;20367;-73
2022/04/01 04:15:40;;;;;;;2.70;0.50;;;0.60;99.90;;;;;;5095355;28;20028;-73
2022/04/01 04:18:12;;;;;;;2.20;0.60;;;0.60;99.90;;;;;;5096038;28;20020;-73
2022/04/01 04:20:46;;;;;;;1.90;0.20;;;0.60;99.90;;;;;;5096431;28;20027;-73
2022/04/01 04:23:12;;;;;;;2.58;0.63;;;0.60;99.90;;;;;;5097169;28;20036;-73
2022/04/01 04:25:38;;;;;;;1.67;0.47;;;0.60;99.90;;;;;;5076229;28;20035;-72
2022/04/01 04:28:16;;;;;;;2.05;0.38;;;0.60;99.90;;;;;;5076288;28;20021;-73
2022/04/01 04:30:53;;;;;;;2.53;0.35;;;0.60;99.90;;;;;;5074941;28;20024;-73
2022/04/01 04:33:23;;;;;;;2.50;0.20;;;0.70;99.90;;;;;;5075807;28;20013;-73
2022/04/01 04:35:49;;;;;;;;;;;0.70;99.90;;;;;;5095329;28;20412;-73
2022/04/01 04:38:16;;;;;;;1.25;0.30;;;0.70;99.90;;;;;;5096435;28;20312;-73
2022/04/01 04:40:42;;;;;;;2.13;0.50;;;0.70;99.90;;;;;;5095097;28;20016;-73
2022/04/01 04:43:07;;;;;;;5.15;0.65;;;0.70;99.90;;;;;;5096176;28;20024;-73
2022/04/01 04:45:34;;;;;;;2.72;0.43;;;0.70;99.90;;;;;;5077325;28;20038;-73
2022/04/01 04:48:03;;;;;;;2.67;0.45;;;0.70;99.90;;;;;;5074521;28;20097;-73
2022/04/01 04:50:30;;;;;;;1.63;0.75;;;0.70;99.90;;;;;;5074372;28;20081;-73
2022/04/01 04:52:56;;;;;;;4.28;0.88;;;0.70;99.90;;;;;;5075601;28;20028;-73
2022/04/01 04:55:23;;;;;;;3.95;0.40;;;0.70;99.90;;;;;;5083823;28;20032;-72
2022/04/01 04:57:51;;;;;;;5.05;0.28;;;0.60;99.90;;;;;;5075697;28;20527;-72
2022/04/01 05:00:21;;;;;;;3.40;0.50;;;0.60;99.90;;;;;;5075413;28;20027;-73
2022/04/01 05:03:14;;;;;;;2.95;0.50;;;0.70;99.90;;;;;;5075508;28;20628;-73
2022/04/01 05:05:45;;;;;;;2.25;0.32;;;0.60;99.90;;;;;;5094158;28;20024;-72
2022/04/01 05:08:40;;;;;;;2.03;0.40;;;0.60;99.90;;;;;;5094628;28;20057;-72
2022/04/01 05:11:32;;;;;;;3.08;0.57;;;0.60;99.90;;;;;;5095599;28;20012;-73
2022/04/01 05:14:08;;;;;;;3.28;0.50;;;0.70;99.90;;;;;;5090266;28;20021;-72
2022/04/01 05:16:52;;;;;;;1.02;0.28;;;0.70;99.90;;;;;;5096872;28;20436;-73
2022/04/01 05:19:26;;;;;;;0.77;0.22;;;0.70;99.90;;;;;;5073688;28;20104;-73
2022/04/01 05:22:10;;;;;;;1.85;0.32;;;0.70;99.90;;;;;;5075140;28;20506;-74
2022/04/01 05:24:38;;;;;;;2.97;0.55;;;0.70;99.90;;;;;;5075276;28;20047;-75
2022/04/01 05:27:06;;;;;;;1.88;0.30;;;0.70;99.90;;;;;;5075002;28;20048;-75
2022/04/01 05:29:37;;;;;;;2.22;0.15;;;0.70;99.90;;;;;;5081702;28;20099;-75
2022/04/01 05:32:04;;;;;;;1.23;0.30;;;0.70;99.90;;;;;;5080334;28;20023;-75
2022/04/01 05:34:38;;;;;;;1.45;0.30;;;0.60;99.90;;;;;;5075123;28;20054;-75
2022/04/01 05:37:05;;;;;;;2.55;0.38;;;0.60;99.90;;;;;;5075155;28;20033;-75
2022/04/01 05:39:32;;;;;;;1.05;0.30;;;0.60;99.90;;;;;;5083848;28;20032;-75
2022/04/01 05:42:00;;;;;;;1.40;0.20;;;0.70;99.90;;;;;;5093759;28;20493;-74
2022/04/01 05:44:26;;;;;;;0.52;0.20;;;0.70;99.90;;;;;;5093356;28;20023;-74
2022/04/01 05:46:53;;;;;;;1.95;0.43;;;0.70;99.90;;;;;;5094962;28;20158;-75
2022/04/01 05:49:19;;;;;;;0.90;0.20;;;0.70;99.90;;;;;;5086032;28;20470;-76
2022/04/01 05:51:49;;;;;;;1.73;0.25;;;0.60;99.90;;;;;;5074560;28;20031;-76
2022/04/01 05:54:19;;;;;;;1.33;0.20;;;0.70;99.90;;;;;;5074865;28;20491;-75
2022/04/01 05:56:45;;;;;;;2.60;0.50;;;0.80;99.90;;;;;;5074879;28;20024;-75
2022/04/01 05:59:12;;;;;;;2.05;0.50;;;0.80;99.90;;;;;;5080224;28;20020;-75
2022/04/01 06:01:42;;;;;;;1.30;0.25;;;0.80;99.90;;;;;;5094592;28;20539;-75
2022/04/01 06:04:22;;;;;;;1.15;0.43;;;0.80;99.90;;;;;;5088177;28;20032;-75
2022/04/01 06:06:49;;;;;;;1.05;0.40;;;0.80;99.90;;;;;;5078264;28;20116;-75
2022/04/01 06:09:32;;;;;;;2.63;0.40;;;0.90;99.90;;;;;;5072947;28;20025;-75
2022/04/01 06:12:18;;;;;;;1.30;0.30;;;0.90;99.90;;;;;;5074352;28;20474;-75
2022/04/01 06:14:49;;;;;;;1.40;0.28;;;1.00;99.90;;;;;;5086162;28;20035;-74
2022/04/01 06:17:27;;;;;;;0.68;0.20;;;1.00;99.90;;;;;;5094819;28;20067;-73
2022/04/01 06:19:56;;;;;;;4.10;0.20;;;1.00;99.90;;;;;;5094672;28;20106;-73
2022/04/01 06:22:26;;;;;;;;;;;1.00;99.90;;;;;;5095518;28;20110;-73
2022/04/01 06:24:58;;;;;;;0.85;0.20;;;1.00;99.90;;;;;;5081805;28;20042;-73
2022/04/01 06:27:43;;;;;;;4.00;0.57;;;1.00;99.90;;;;;;5074493;28;20025;-73
2022/04/01 06:30:11;;;;;;;10.30;0.90;;;1.00;99.90;;;;;;5074222;28;20025;-74
2022/04/01 06:33:12;;;;;;;2.22;0.30;;;0.90;99.90;;;;;;5073202;28;20089;-74
2022/04/01 06:35:47;;;;;;;1.75;0.30;;;1.00;99.90;;;;;;5080845;28;20555;-74
2022/04/01 06:38:20;;;;;;;0.90;0.30;;;1.10;99.90;;;;;;5072905;28;20032;-73
2022/04/01 06:41:21;;;;;;;2.25;0.25;;;1.10;99.90;;;;;;5073961;28;20029;-73
2022/04/01 06:43:47;;;;;;;1.40;0.13;;;1.10;99.90;;;;;;5071873;28;20085;-73
2022/04/01 06:46:13;;;;;;;1.73;0.35;;;1.10;99.90;;;;;;5093677;28;20062;-75
2022/04/01 06:48:40;;;;;;;3.17;0.35;;;1.20;99.90;;;;;;5093678;28;20027;-75
2022/04/01 06:51:08;;;;;;;5.57;0.38;;;1.20;99.90;;;;;;5093735;28;20043;-75
2022/04/01 06:53:36;;;;;;;2.13;0.10;;;1.30;99.90;;;;;;5092662;28;20016;-74
2022/04/01 06:56:04;;;;;;;0.80;0.10;;;1.40;99.90;;;;;;5072421;28;20028;-77
2022/04/01 06:58:30;;;;;;;2.83;0.05;;;1.50;99.90;;;;;;5073748;28;20466;-77
2022/04/01 07:00:56;;;;;;;0.55;0.03;;;1.50;99.90;;;;;;5072013;28;20031;-75
2022/04/01 07:03:22;;;;;;;1.88;0.10;;;1.70;99.90;;;;;;5073275;28;20024;-75
2022/04/01 07:05:48;;;;;;;2.63;0.10;;;1.70;99.90;;;;;;5087955;28;20077;-76
2022/04/01 07:08:16;;;;;;;1.92;0.08;;;1.90;99.90;;;;;;5092102;28;20107;-75
2022/04/01 07:10:42;;;;;;;3.40;0.10;;;2.10;99.90;;;;;;5093613;28;20020;-76
2022/04/01 07:13:10;;;;;;;2.92;0.57;;;2.20;99.90;;;;;;5091942;28;20112;-75
2022/04/01 07:15:35;;;;;;;2.85;0.00;;;2.40;99.90;;;;;;5073224;28;20446;-75
2022/04/01 07:18:02;;;;;;;7.72;0.28;;;2.40;99.90;;;;;;5071940;28;20055;-75
2022/04/01 07:20:27;;;;;;;0.98;0.10;;;2.50;99.90;;;;;;5071848;28;20124;-75
2022/04/01 07:22:53;;;;;;;1.52;0.25;;;2.70;99.90;;;;;;5073025;28;20474;-75
2022/04/01 07:25:19;;;;;;;1.75;0.17;;;2.80;99.90;;;;;;5089981;28;20025;-75
2022/04/01 07:27:45;;;;;;;1.15;0.17;;;3.00;99.90;;;;;;5092428;28;20088;-75
2022/04/01 07:30:11;;;;;;;0.55;0.20;;;3.00;99.90;;;;;;5074467;28;20079;-74
2022/04/01 07:32:37;;;;;;;0.82;0.10;;;3.10;99.90;;;;;;5073314;28;20013;-74
2022/04/01 07:35:07;;;;;;;2.95;0.10;;;3.10;99.90;;;;;;5080203;28;20047;-74
2022/04/01 07:37:33;;;;;;;1.13;0.15;;;3.20;99.90;;;;;;5092360;28;20047;-74
2022/04/01 07:39:59;;;;;;;1.02;0.10;;;3.40;99.90;;;;;;5093087;28;20020;-75
2022/04/01 07:42:27;;;;;;;0.47;0.00;;;3.60;99.90;;;;;;5093698;28;20385;-75
2022/04/01 07:44:53;;;;;;;0.28;0.08;;;3.90;99.90;;;;;;5086143;28;20077;-75
2022/04/01 07:47:19;;;;;;;0.75;0.00;;;4.00;99.90;;;;;;5071793;28;20478;-75
2022/04/01 07:49:46;;;;;;;4.22;0.10;;;4.10;99.90;;;;;;5073369;28;20025;-74
2022/04/01 07:52:13;;;;;;;0.80;0.00;;;4.00;99.90;;;;;;5071655;28;20497;-74
2022/04/01 07:54:40;;;;;;;5.18;0.00;;;4.00;99.90;;;;;;5076142;28;20481;-74
2022/04/01 07:57:07;;;;;;;0.55;0.00;;;4.00;99.90;;;;;;5093483;28;20351;-74
2022/04/01 07:59:33;;;;;;;1.08;0.00;;;4.00;99.90;;;;;;5093036;28;20093;-74
2022/04/01 08:01:59;;;;;;;1.90;0.00;;;3.90;99.90;;;;;;5093197;28;20028;-75
2022/04/01 08:04:26;;;;;;;1.65;0.00;;;3.90;99.90;;;;;;5082006;28;20040;-75
2022/04/01 08:06:53;;;;;;;1.40;0.17;;;3.80;99.90;;;;;;5078122;28;20022;-75
2022/04/01 08:09:18;;;;;;;1.60;0.00;;;3.80;99.90;;;;;;5097188;28;20024;-75
2022/04/01 08:11:44;;;;;;;4.88;0.10;;;3.70;99.90;;;;;;5081229;28;20036;-74
2022/04/01 08:14:10;;;;;;;1.25;0.00;;;3.70;99.90;;;;;;5077087;28;20466;-75
2022/04/01 08:16:35;;;;;;;2.60;0.47;;;3.70;99.90;;;;;;5076205;28;20028;-75
2022/04/01 08:19:02;;;;;;;2.00;0.00;;;3.70;99.90;;;;;;5076732;28;20427;-74
2022/04/01 08:21:28;;;;;;;1.17;0.00;;;3.80;99.90;;;;;;5087414;28;20110;-74
2022/04/01 08:23:54;;;;;;;1.65;0.10;;;3.80;99.90;;;;;;5096666;28;20130;-74
2022/04/01 08:26:20;;;;;;;1.90;0.10;;;3.80;99.90;;;;;;5096895;28;20020;-74
2022/04/01 08:28:45;;;;;;;1.58;0.00;;;3.90;99.90;;;;;;5095512;28;20500;-75
2022/04/01 08:31:11;;;;;;;2.47;0.00;;;3.90;99.90;;;;;;5086946;28;20414;-76
2022/04/01 08:33:37;;;;;;;0.45;0.00;;;4.00;99.90;;;;;;5077138;28;20098;-74
2022/04/01 08:36:03;;;;;;;1.88;0.00;;;4.10;99.90;;;;;;5076993;28;20074;-73
2022/04/01 08:38:29;;;;;;;0.65;0.00;;;4.10;99.90;;;;;;5074942;28;20533;-73
2022/04/01 08:40:55;;;;;;;0.50;0.00;;;4.20;99.90;;;;;;5077023;28;20043;-76
2022/04/01 08:43:32;;;;;;;0.75;0.15;;;4.40;99.90;;;;;;5077015;28;20073;-77
2022/04/01 08:46:00;;;;;;;0.40;0.00;;;4.50;99.90;;;;;;5074818;28;20106;-76
2022/04/01 08:48:30;;;;;;;1.92;0.28;;;4.70;99.90;;;;;;5076180;28;20571;-77
2022/04/01 08:50:56;;;;;;;4.38;0.00;;;4.80;99.90;;;;;;5094664;28;20012;-77
2022/04/01 08:53:22;;;;;;;0.43;0.13;;;4.80;99.90;;;;;;5096524;28;20048;-76
2022/04/01 08:55:51;;;;;;;0.10;0.00;;;5.10;99.90;;;;;;5096057;28;20024;-76
2022/04/01 08:58:19;;;;;;;;;;;5.00;99.90;;;;;;5081688;28;20048;-77
2022/04/01 09:00:45;;;;;;;1.95;0.22;;;5.00;99.90;;;;;;5075807;28;19916;-76
2022/04/01 09:03:12;;;;;;;1.75;0.17;;;5.10;99.90;;;;;;5075418;28;20077;-77
2022/04/01 09:05:46;;;;;;;6.05;0.20;;;5.20;99.90;;;;;;5076112;28;20537;-77
2022/04/01 09:08:15;;;;;;;2.92;0.00;;;5.30;99.90;;;;;;5077707;28;20538;-74
2022/04/01 09:11:00;;;;;;;0.75;0.00;;;5.30;99.90;;;;;;5095821;28;20153;-73
2022/04/01 09:13:34;;;;;;;1.92;0.00;;;5.30;99.90;;;;;;5096101;28;20023;-73
2022/04/01 09:16:01;;;;;;;2.40;0.00;;;6.30;99.90;;;;;;5094402;28;20020;-73
2022/04/01 09:18:44;;;;;;;0.98;0.05;;;4.70;99.90;;;;;;5089800;28;20020;-73
2022/04/01 09:21:12;;;;;;;0.10;0.00;;;4.50;99.90;;;;;;5073950;28;20030;-72
2022/04/01 09:23:39;;;;;;;2.53;0.00;;;4.40;99.90;;;;;;5073952;28;20569;-72
2022/04/01 09:26:06;;;;;;;0.10;0.00;;;4.30;99.90;;;;;;5090851;28;20107;-73
2022/04/01 09:28:34;;;;;;;0.93;0.00;;;4.40;99.90;;;;;;5091939;28;20039;-73
2022/04/01 09:31:12;;;;;;;0.85;0.00;;;4.40;99.90;;;;;;5094079;28;20023;-73
2022/04/01 09:33:43;;;;;;;2.05;0.00;;;4.50;99.90;;;;;;5095669;28;20024;-73
2022/04/01 09:36:16;;;;;;;0.47;0.00;;;4.60;99.90;;;;;;5095246;28;20020;-73
2022/04/01 09:39:01;;;;;;;4.90;0.10;;;4.70;99.90;;;;;;5094440;28;20023;-72
2022/04/01 09:41:36;;;;;;;0.88;0.35;;;4.50;99.90;;;;;;5093773;28;20038;-73
2022/04/01 09:44:08;;;;;;;0.73;0.10;;;4.50;99.90;;;;;;5095256;28;20024;-73
2022/04/01 09:46:34;;;;;;;0.52;0.00;;;4.60;99.90;;;;;;5095060;28;20023;-73
2022/04/01 09:49:00;;;;;;;0.68;0.00;;;4.70;99.90;;;;;;5084950;28;20024;-73
2022/04/01 09:51:33;;;;;;;2.40;0.00;;;4.80;99.90;;;;;;5074607;28;20027;-72
2022/04/01 09:54:02;;;;;;;1.55;0.00;;;4.90;99.90;;;;;;5074525;28;20031;-73
2022/04/01 09:56:47;;;;;;;0.25;0.00;;;5.00;99.90;;;;;;5074682;28;20028;-74
2022/04/01 09:59:15;;;;;;;0.63;0.00;;;5.10;99.90;;;;;;5074676;28;20036;-74
2022/04/01 10:01:43;;;;;;;0.13;0.00;;;5.20;99.90;;;;;;5073213;28;20032;-74
2022/04/01 10:04:10;;;;;;;1.70;0.00;;;5.10;99.90;;;;;;5074694;28;20033;-74
2022/04/01 10:06:37;;;;;;;0.10;0.00;;;5.10;99.90;;;;;;5074207;28;20372;-73
2022/04/01 10:09:07;;;;;;;3.25;0.10;;;5.10;99.90;;;;;;5074274;28;20021;-74
2022/04/01 10:11:35;;;;;;;0.20;0.00;;;5.00;99.90;;;;;;5073005;28;20028;-73
2022/04/01 10:14:06;;;;;;;0.95;0.20;;;4.80;99.90;;;;;;5075080;28;20020;-74
2022/04/01 10:16:34;;;;;;;0.98;0.03;;;4.80;99.90;;;;;;5073069;28;20025;-74
2022/04/01 10:19:11;;;;;;;3.58;0.65;;;4.90;99.90;;;;;;5074835;28;20028;-74
2022/04/01 10:21:40;;;;;;;0.98;0.10;;;4.80;99.90;;;;;;5074111;28;20485;-74
2022/04/01 10:24:33;;;;;;;2.33;0.10;;;4.90;99.90;;;;;;5074438;28;20024;-73
2022/04/01 10:27:21;;;;;;;0.40;0.00;;;5.10;99.90;;;;;;5074125;28;20025;-74
2022/04/01 10:29:47;;;;;;;3.42;0.08;;;5.10;99.90;;;;;;5074164;28;20119;-73
2022/04/01 10:32:21;;;;;;;0.25;0.10;;;5.10;99.90;;;;;;5074461;28;20024;-74
2022/04/01 10:34:48;;;;;;;1.77;0.05;;;5.10;99.90;;;;;;5074586;28;20090;-74
2022/04/01 10:37:15;;;;;;;2.90;0.10;;;5.20;99.90;;;;;;5074078;28;20021;-74
2022/04/01 10:39:51;;;;;;;1.30;0.10;;;5.20;99.90;;;;;;5074252;28;20032;-72
2022/04/01 10:42:17;;;;;;;0.55;0.05;;;5.30;99.90;;;;;;5073834;28;20393;-73
2022/04/01 10:44:49;;;;;;;0.60;0.00;;;5.40;99.90;;;;;;5072660;28;20025;-73
2022/04/01 10:47:15;;;;;;;0.20;0.10;;;5.80;99.90;;;;;;5072361;28;20052;-73
2022/04/01 10:52:25;;;;;;;1.02;0.28;;;6.40;99.90;;;;;;5073778;28;20536;-73
2022/04/01 10:55:07;;;;;;;0.75;0.32;;;7.10;99.90;;;;;;5074409;28;20013;-74
2022/04/01 10:57:43;;;;;;;0.50;0.10;;;7.50;99.90;;;;;;5073696;28;20463;-74
2022/04/01 11:00:15;;;;;;;1.70;0.43;;;7.30;99.90;;;;;;5073553;28;20386;-74
2022/04/01 11:02:45;;;;;;;0.82;0.10;;;7.00;99.90;;;;;;5073550;28;20029;-73
2022/04/01 11:05:30;;;;;;;2.92;0.38;;;6.70;99.90;;;;;;5071941;28;20032;-74
2022/04/01 11:08:15;;;;;;;0.70;0.10;;;6.60;99.90;;;;;;5073406;28;20426;-74
2022/04/01 11:11:12;;;;;;;2.33;0.15;;;6.20;99.90;;;;;;5073225;28;20016;-74
2022/04/01 11:13:38;;;;;;;2.65;0.38;;;5.90;99.90;;;;;;5073344;28;20023;-73
2022/04/01 11:16:20;;;;;;;2.25;0.43;;;5.70;99.90;;;;;;5073233;28;20024;-73
2022/04/01 11:19:18;;;;;;;0.98;0.15;;;5.40;99.90;;;;;;5073305;28;20111;-73
2022/04/01 11:21:46;;;;;;;0.73;0.10;;;5.20;99.90;;;;;;5073325;28;20382;-73
2022/04/01 11:24:34;;;;;;;0.75;0.20;;;5.40;99.90;;;;;;5072324;28;20482;-74
2022/04/01 11:27:25;;;;;;;0.60;0.08;;;5.80;99.90;;;;;;5072057;28;20020;-73
2022/04/01 11:30:24;;;;;;;6.18;0.20;;;6.10;99.90;;;;;;5073332;28;20370;-73
2022/04/01 11:32:55;;;;;;;0.45;0.10;;;6.20;99.90;;;;;;5069561;28;20032;-74
2022/04/01 11:35:23;;;;;;;4.35;0.82;;;6.40;99.90;;;;;;5073308;28;20032;-73
2022/04/01 11:37:49;;;;;;;2.23;0.50;;;6.50;99.90;;;;;;5073543;28;20062;-73
2022/04/01 11:40:18;;;;;;;1.15;0.20;;;6.60;99.90;;;;;;5071778;28;20025;-72
2022/04/01 11:42:57;;;;;;;;;;;6.50;99.90;;;;;;5073755;28;20031;-73
2022/04/01 11:45:23;;;;;;;;;;;6.50;99.90;;;;;;5077242;28;20029;-72
2022/04/01 11:47:49;;;;;;;2.78;0.60;;;6.60;99.90;;;;;;5076876;28;19941;-72
2022/04/01 11:50:19;;;;;;;1.95;0.30;;;6.40;99.90;;;;;;5077298;28;20032;-72
2022/04/01 11:52:47;;;;;;;2.83;0.88;;;6.20;99.90;;;;;;5077290;28;20032;-72
2022/04/01 11:55:25;;;;;;;2.50;1.00;;;6.10;99.90;;;;;;5077276;28;20025;-72
2022/04/01 11:57:53;;;;;;;2.28;0.55;;;6.10;99.90;;;;;;5077302;28;20058;-72
2022/04/01 12:00:21;;;;;;;3.77;0.80;;;6.30;99.90;;;;;;5076866;28;20136;-72
2022/04/01 12:02:49;;;;;;;1.00;0.35;;;6.30;99.90;;;;;;5077146;28;20529;-72
2022/04/01 12:05:15;;;;;;;3.20;0.98;;;6.00;99.90;;;;;;5075275;28;20150;-72
2022/04/01 12:10:28;;;;;;;1.92;0.40;;;6.00;99.90;;;;;;5076760;28;20036;-72
2022/04/01 12:13:02;;;;;;;1.83;0.80;;;5.70;99.90;;;;;;5076585;28;20118;-72
2022/04/01 12:15:31;;;;;;;2.60;0.70;;;5.60;99.90;;;;;;5075259;28;20078;-72
2022/04/01 12:17:57;;;;;;;1.13;0.60;;;5.40;99.90;;;;;;5076212;28;20044;-72
2022/04/01 12:20:23;;;;;;;5.15;0.70;;;5.30;99.90;;;;;;5076277;28;20056;-71
2022/04/01 12:22:51;;;;;;;2.40;0.80;;;5.10;99.90;;;;;;5076183;28;20039;-72
2022/04/01 12:25:17;;;;;;;4.32;1.20;;;4.90;99.90;;;;;;5076126;28;20012;-72
2022/04/01 12:27:55;;;;;;;2.13;0.90;;;4.80;99.90;;;;;;5076074;28;20436;-72
2022/04/01 12:30:36;;;;;;;1.17;0.43;;;4.70;99.90;;;;;;5076234;28;20075;-72
2022/04/01 12:33:06;;;;;;;5.03;1.15;;;4.60;99.90;;;;;;5076146;28;20103;-72
2022/04/01 12:35:32;;;;;;;1.90;1.05;;;4.60;99.90;;;;;;5076133;28;20020;-71
2022/04/01 12:38:11;;;;;;;5.15;0.70;;;4.60;99.90;;;;;;5079071;28;20099;-72
2022/04/01 12:40:45;;;;;;;4.25;0.70;;;4.50;99.90;;;;;;5096958;28;20381;-74
2022/04/01 12:43:30;;;;;;;3.17;0.90;;;4.50;99.90;;;;;;5096798;28;20024;-76
2022/04/01 12:46:18;;;;;;;5.10;1.17;;;4.50;99.90;;;;;;5093090;28;20028;-72
2022/04/01 12:48:50;;;;;;;;;;;4.60;99.90;;;;;;5076158;28;20029;-72
2022/04/01 12:51:19;;;;;;;1.67;0.50;;;4.60;99.90;;;;;;5075816;28;19904;-71
2022/04/01 12:54:08;;;;;;;3.67;0.70;;;4.60;99.90;;;;;;5075439;28;20489;-71
2022/04/01 12:56:34;;;;;;;;;;;4.70;99.90;;;;;;5076607;28;20067;-71
2022/04/01 12:59:10;;;;;;;4.88;0.70;;;5.00;99.90;;;;;;5095878;28;19919;-71
2022/04/01 13:01:38;;;;;;;1.63;0.40;;;5.30;99.90;;;;;;5095704;28;20385;-72
2022/04/01 13:04:07;;;;;;;1.90;0.40;;;5.40;99.90;;;;;;5095925;28;20020;-72
2022/04/01 13:06:33;;;;;;;;;;;5.30;99.90;;;;;;5096321;28;20024;-71
2022/04/01 13:09:07;;;;;;;6.18;1.02;;;5.00;99.90;;;;;;5091028;28;19998;-72
2022/04/01 13:11:46;;;;;;;1.85;0.47;;;4.80;99.90;;;;;;5076273;28;20060;-72
2022/04/01 13:14:27;;;;;;;2.65;0.50;;;4.60;99.90;;;;;;5073914;28;20017;-75
2022/04/01 13:16:56;;;;;;;2.83;0.20;;;4.50;99.90;;;;;;5074005;28;20393;-75
2022/04/01 13:19:28;;;;;;;2.25;0.40;;;4.60;99.90;;;;;;5075468;28;20074;-75
2022/04/01 13:22:01;;;;;;;3.33;0.20;;;4.60;99.90;;;;;;5075110;28;20081;-75
2022/04/01 13:24:37;;;;;;;3.50;0.20;;;4.70;99.90;;;;;;5093358;28;20077;-74